This is the latest recevied weather packets stored in our database for station/object KG4AGD. If no packets are shown the sender has not sent any weather packets the latest 10 day(s).
| Time | Temp. | Humidity | Pressure | Rain* | Wind** | Luminosity | Snow |
|---|---|---|---|---|---|---|---|
| 1777810104 | 10° C | 80% | 1020.3 hPa | 0.25 mm | - | - | - |
| 1777809802 | 9.44° C | 84% | 1020.3 hPa | 0.25 mm | - | - | - |
| 1777809500 | 9.44° C | 82% | 1020.3 hPa | 0.25 mm | - | - | - |
| 1777809194 | 9.44° C | 83% | 1019.9 hPa | 0.25 mm | - | - | - |
| 1777808892 | 8.89° C | 84% | 1019.9 hPa | 0.25 mm | - | - | - |
| 1777808590 | 8.89° C | 89% | 1019.9 hPa | 0.25 mm | - | - | - |
| 1777808287 | 8.89° C | 86% | 1019.9 hPa | 0.25 mm | - | - | - |
| 1777807985 | 8.33° C | 86% | 1019.9 hPa | 0.25 mm | - | - | - |
| 1777807683 | 8.33° C | 87% | 1019.9 hPa | 0.25 mm | - | - | - |
| 1777807381 | 7.78° C | 88% | 1019.9 hPa | 0.25 mm | - | - | - |
| 1777807078 | 7.22° C | 92% | 1019.6 hPa | 0.25 mm | - | - | - |
| 1777806776 | 7.22° C | 92% | 1019.6 hPa | 0.25 mm | - | - | - |
| 1777806474 | 6.67° C | 94% | 1019.3 hPa | 0.25 mm | - | - | - |
| 1777806172 | 6.11° C | 97% | 1019.3 hPa | 0.25 mm | - | - | - |
| 1777805869 | 5.56° C | 99% | 1019.3 hPa | 0.25 mm | - | - | - |
| 1777805567 | 5° C | 100% | 1018.9 hPa | 0.25 mm | - | - | - |
| 1777805265 | 5° C | 100% | 1018.9 hPa | 0.25 mm | - | - | - |
| 1777804963 | 5° C | 100% | 1018.9 hPa | 0.25 mm | - | - | - |
| 1777804660 | 5° C | 100% | 1018.9 hPa | 0.25 mm | - | - | - |
| 1777804358 | 5° C | 100% | 1018.9 hPa | 0.25 mm | - | - | - |
| 1777804056 | 5° C | 100% | 1018.6 hPa | 0.25 mm | - | - | - |
| 1777803754 | 5° C | 100% | 1018.6 hPa | 0.25 mm | - | - | - |
| 1777803452 | 5° C | 100% | 1018.6 hPa | 0.25 mm | - | - | - |
| 1777803150 | 5° C | 100% | 1018.6 hPa | 0.25 mm | - | - | - |
| 1777802847 | 5° C | 100% | 1018.2 hPa | 0.25 mm | - | - | - |
* Rain since midnight (hover to see other rain measurements)
** Current wind speed in m/s (hover to see current wind gust speed)